Time;durP1;ratioP1;P1;durP2;ratioP2;P2;SDS_P1;SDS_P2;PMS_P1;PMS_P2;Temp;Humidity;BMP_temperature;BMP_pressure;BME280_temperature;BME280_humidity;BME280_pressure;Samples;Min_cycle;Max_cycle;Signal;HPM_P1;HPM_P2
2022/08/31 00:04:40;;;;;;;0.40;0.40;;;15.00;99.90;;;;;;5114747;28;20934;-69
2022/08/31 00:07:30;;;;;;;0.40;0.40;;;14.80;99.90;;;;;;5113978;28;20237;-69
2022/08/31 00:10:19;;;;;;;0.40;0.40;;;14.70;99.90;;;;;;5113174;28;20207;-69
2022/08/31 00:13:21;;;;;;;0.40;0.40;;;14.70;99.90;;;;;;5113518;28;21024;-69
2022/08/31 00:16:11;;;;;;;0.40;0.40;;;14.60;99.90;;;;;;5112847;28;20432;-69
2022/08/31 00:18:59;;;;;;;0.40;0.40;;;14.70;99.90;;;;;;5114063;28;20199;-69
2022/08/31 00:21:48;;;;;;;0.40;0.40;;;14.50;99.90;;;;;;5113696;28;20426;-69
2022/08/31 00:24:36;;;;;;;0.40;0.40;;;14.40;99.90;;;;;;5112722;28;20976;-69
2022/08/31 00:27:24;;;;;;;0.40;0.40;;;14.40;99.90;;;;;;5112374;28;20450;-69
2022/08/31 00:30:14;;;;;;;0.40;0.40;;;14.40;99.90;;;;;;5112783;28;20872;-69
2022/08/31 00:33:03;;;;;;;0.40;0.40;;;14.40;99.90;;;;;;5112992;28;20433;-69
2022/08/31 00:35:51;;;;;;;0.40;0.40;;;14.30;99.90;;;;;;5111952;28;20855;-69
2022/08/31 00:38:41;;;;;;;0.40;0.40;;;14.30;99.90;;;;;;5112517;28;20429;-69
2022/08/31 00:41:31;;;;;;;0.40;0.40;;;14.30;99.90;;;;;;5112296;28;20421;-69
2022/08/31 00:44:19;;;;;;;0.40;0.40;;;14.20;99.90;;;;;;5113410;28;20657;-69
2022/08/31 00:47:09;;;;;;;0.70;0.70;;;14.20;99.90;;;;;;5112430;28;20418;-68
2022/08/31 00:49:58;;;;;;;0.40;0.40;;;14.30;99.90;;;;;;5112381;28;20889;-68
2022/08/31 00:52:50;;;;;;;0.40;0.40;;;14.20;99.90;;;;;;5113035;28;21030;-69
2022/08/31 00:55:41;;;;;;;0.40;0.40;;;14.10;99.90;;;;;;5112469;28;20425;-69
2022/08/31 00:58:29;;;;;;;0.40;0.40;;;14.00;99.90;;;;;;5111453;28;20414;-69
2022/08/31 01:01:19;;;;;;;0.40;0.40;;;14.00;99.90;;;;;;5112150;28;20425;-69
2022/08/31 01:04:08;;;;;;;0.40;0.40;;;14.10;99.90;;;;;;5112634;28;20518;-68
2022/08/31 01:06:57;;;;;;;0.40;0.40;;;13.90;99.90;;;;;;5112836;28;20466;-68
2022/08/31 01:09:46;;;;;;;0.40;0.40;;;13.90;99.90;;;;;;5113163;28;20666;-69
2022/08/31 01:12:45;;;;;;;0.40;0.40;;;13.80;99.90;;;;;;5111248;28;20954;-69
2022/08/31 01:15:34;;;;;;;0.40;0.40;;;13.80;99.90;;;;;;5112723;28;20835;-68
2022/08/31 01:18:23;;;;;;;0.40;0.40;;;13.80;99.90;;;;;;5116406;28;20466;-69
2022/08/31 01:21:24;;;;;;;0.40;0.40;;;13.80;99.90;;;;;;5115310;28;20797;-68
2022/08/31 01:24:15;;;;;;;0.40;0.40;;;13.80;99.90;;;;;;5115396;28;20464;-69
2022/08/31 01:27:06;;;;;;;0.40;0.40;;;13.70;99.90;;;;;;5115886;28;21069;-68
2022/08/31 01:29:58;;;;;;;0.40;0.40;;;13.70;99.90;;;;;;5115636;28;20490;-69
2022/08/31 01:32:46;;;;;;;0.40;0.40;;;13.70;99.90;;;;;;5118820;27;20457;-69
2022/08/31 01:35:34;;;;;;;0.40;0.40;;;13.70;99.90;;;;;;5115807;28;20417;-69
2022/08/31 01:38:22;;;;;;;0.40;0.40;;;13.70;99.90;;;;;;5116463;28;20448;-69
2022/08/31 01:41:12;;;;;;;0.40;0.40;;;13.60;99.90;;;;;;5115902;28;20437;-69
2022/08/31 01:44:01;;;;;;;0.40;0.40;;;13.60;99.90;;;;;;5115811;28;20525;-69
2022/08/31 01:46:50;;;;;;;0.40;0.40;;;13.60;99.90;;;;;;5115865;28;20422;-68
2022/08/31 01:49:38;;;;;;;0.40;0.40;;;13.60;99.90;;;;;;5115047;28;20821;-69
2022/08/31 01:52:26;;;;;;;0.40;0.40;;;13.60;99.90;;;;;;5115168;28;20421;-69
2022/08/31 01:55:15;;;;;;;0.40;0.40;;;13.60;99.90;;;;;;5114114;28;20422;-69
2022/08/31 01:58:05;;;;;;;0.40;0.40;;;13.60;99.90;;;;;;5114905;28;20478;-68
2022/08/31 02:00:53;;;;;;;0.40;0.40;;;13.60;99.90;;;;;;5116114;28;20841;-69
2022/08/31 02:03:41;;;;;;;0.40;0.40;;;13.60;99.90;;;;;;5115595;28;20472;-69
2022/08/31 02:06:30;;;;;;;0.40;0.40;;;13.50;99.90;;;;;;5115238;28;20425;-69
2022/08/31 02:09:19;;;;;;;0.40;0.40;;;13.50;99.90;;;;;;5114906;28;20426;-69
2022/08/31 02:12:07;;;;;;;0.40;0.40;;;13.50;99.90;;;;;;5114312;28;20421;-68
2022/08/31 02:15:01;;;;;;;0.40;0.40;;;13.50;99.90;;;;;;5114636;28;20971;-69
2022/08/31 02:17:49;;;;;;;0.40;0.40;;;13.40;99.90;;;;;;5115528;28;20425;-68
2022/08/31 02:20:39;;;;;;;0.40;0.40;;;13.40;99.90;;;;;;5116120;28;20425;-69
2022/08/31 02:23:27;;;;;;;0.40;0.40;;;13.30;99.90;;;;;;5116155;28;20473;-69
2022/08/31 02:26:16;;;;;;;0.40;0.40;;;13.30;99.90;;;;;;5115982;28;20432;-69
2022/08/31 02:29:06;;;;;;;2.40;2.30;;;13.30;99.90;;;;;;5114688;28;20429;-68
2022/08/31 02:31:55;;;;;;;0.40;0.40;;;13.30;99.90;;;;;;5116321;28;20440;-69
2022/08/31 02:34:43;;;;;;;0.40;0.40;;;13.20;99.90;;;;;;5115553;28;20957;-69
2022/08/31 02:37:32;;;;;;;0.40;0.40;;;13.20;99.90;;;;;;5118336;28;20486;-69
2022/08/31 02:40:22;;;;;;;0.40;0.40;;;13.20;99.90;;;;;;5121304;28;20422;-69
2022/08/31 02:43:11;;;;;;;0.40;0.40;;;13.30;99.90;;;;;;5122591;28;20513;-69
2022/08/31 02:46:01;;;;;;;0.40;0.40;;;13.40;99.90;;;;;;5125545;28;20953;-69
2022/08/31 02:48:50;;;;;;;0.40;0.40;;;13.40;99.90;;;;;;5122833;28;20424;-69
2022/08/31 02:51:40;;;;;;;0.40;0.40;;;13.60;99.90;;;;;;5123964;28;20442;-69
2022/08/31 02:54:28;;;;;;;0.40;0.40;;;13.60;99.90;;;;;;5121633;28;20441;-69
2022/08/31 02:57:16;;;;;;;0.40;0.40;;;13.70;99.90;;;;;;5115505;28;20433;-69
2022/08/31 03:00:06;;;;;;;0.40;0.40;;;13.80;99.90;;;;;;5114874;28;20421;-69
2022/08/31 03:02:55;;;;;;;0.40;0.40;;;13.90;99.90;;;;;;5114206;28;20441;-69
2022/08/31 03:05:44;;;;;;;0.40;0.40;;;14.00;99.90;;;;;;5113433;28;20934;-68
2022/08/31 03:08:32;;;;;;;0.40;0.40;;;14.00;99.90;;;;;;5113997;28;20945;-69
2022/08/31 03:11:21;;;;;;;0.40;0.40;;;14.00;99.90;;;;;;5113089;28;20941;-69
2022/08/31 03:14:09;;;;;;;0.40;0.40;;;14.00;99.90;;;;;;5113849;28;20486;-69
2022/08/31 03:16:57;;;;;;;0.40;0.40;;;14.00;99.90;;;;;;5113678;28;20426;-69
2022/08/31 03:19:45;;;;;;;0.40;0.40;;;14.00;99.90;;;;;;5113163;28;20425;-68
2022/08/31 03:22:35;;;;;;;0.40;0.40;;;13.90;99.90;;;;;;5113284;28;20428;-69
2022/08/31 03:25:23;;;;;;;0.40;0.40;;;13.80;99.90;;;;;;5153434;22;20513;-66
2022/08/31 03:28:12;;;;;;;0.40;0.40;;;13.70;99.90;;;;;;5133255;27;20426;-66
2022/08/31 03:31:00;;;;;;;0.40;0.40;;;13.70;99.90;;;;;;5132882;27;21000;-67
2022/08/31 03:33:48;;;;;;;0.40;0.40;;;13.60;99.90;;;;;;5131849;27;20535;-67
2022/08/31 03:36:36;;;;;;;0.40;0.40;;;13.50;99.90;;;;;;5132988;27;20428;-67
2022/08/31 03:39:26;;;;;;;0.50;0.50;;;13.40;99.90;;;;;;5131351;27;20955;-67
2022/08/31 03:42:14;;;;;;;0.40;0.40;;;13.40;99.90;;;;;;5132439;27;20417;-67
2022/08/31 03:45:03;;;;;;;0.40;0.40;;;13.30;99.90;;;;;;5132927;27;20533;-66
2022/08/31 03:47:51;;;;;;;0.47;0.47;;;13.20;99.90;;;;;;5132831;27;20425;-66
2022/08/31 03:50:41;;;;;;;0.40;0.40;;;13.20;99.90;;;;;;5133153;27;20439;-67
2022/08/31 03:53:29;;;;;;;0.40;0.40;;;13.10;99.90;;;;;;5133092;27;20485;-66
2022/08/31 03:56:19;;;;;;;0.40;0.40;;;13.10;99.90;;;;;;5133759;27;20554;-67
2022/08/31 03:59:07;;;;;;;0.40;0.40;;;13.10;99.90;;;;;;5132046;27;20420;-66
2022/08/31 04:01:55;;;;;;;0.40;0.40;;;13.10;99.90;;;;;;5132277;27;20432;-67
2022/08/31 04:04:48;;;;;;;0.40;0.40;;;13.10;99.90;;;;;;5131668;27;20457;-66
2022/08/31 04:07:37;;;;;;;0.40;0.40;;;13.10;99.90;;;;;;5133108;27;20425;-67
2022/08/31 04:10:30;;;;;;;0.40;0.40;;;13.20;99.90;;;;;;5132185;27;20549;-66
2022/08/31 04:13:19;;;;;;;0.40;0.40;;;13.20;99.90;;;;;;5132233;27;20455;-67
2022/08/31 04:16:10;;;;;;;0.40;0.40;;;13.30;99.90;;;;;;5133121;27;20413;-66
2022/08/31 04:18:59;;;;;;;0.40;0.40;;;13.30;99.90;;;;;;5133425;27;20557;-68
2022/08/31 04:21:48;;;;;;;0.40;0.40;;;13.40;99.90;;;;;;5133064;28;20798;-66
2022/08/31 04:24:37;;;;;;;0.40;0.40;;;13.50;99.90;;;;;;5131968;28;20476;-68
2022/08/31 04:27:25;;;;;;;0.40;0.40;;;13.50;99.90;;;;;;5132226;28;20417;-66
2022/08/31 04:30:15;;;;;;;0.40;0.40;;;13.60;99.90;;;;;;5132527;28;20796;-65
2022/08/31 04:33:03;;;;;;;0.40;0.40;;;13.70;99.90;;;;;;5132696;28;20416;-68
2022/08/31 04:35:51;;;;;;;0.40;0.40;;;13.80;99.90;;;;;;5132147;28;20412;-67
2022/08/31 04:38:42;;;;;;;0.40;0.40;;;13.80;99.90;;;;;;5132642;28;20437;-66
2022/08/31 04:41:32;;;;;;;0.40;0.40;;;13.80;99.90;;;;;;5131656;28;20416;-67
2022/08/31 04:44:20;;;;;;;0.40;0.40;;;13.80;99.90;;;;;;5131675;28;20510;-67
2022/08/31 04:47:10;;;;;;;0.40;0.40;;;13.80;99.90;;;;;;5132781;28;20457;-66
2022/08/31 04:49:58;;;;;;;0.40;0.40;;;13.80;99.90;;;;;;5132303;27;20952;-66
2022/08/31 04:52:48;;;;;;;0.40;0.40;;;13.80;99.90;;;;;;5135412;27;20428;-67
2022/08/31 04:55:51;;;;;;;0.40;0.40;;;13.80;99.90;;;;;;5135837;27;20424;-66
2022/08/31 04:58:39;;;;;;;0.40;0.40;;;13.70;99.90;;;;;;5135243;27;20427;-68
2022/08/31 05:01:30;;;;;;;0.40;0.40;;;13.70;99.90;;;;;;5134778;27;20416;-66
2022/08/31 05:04:31;;;;;;;0.40;0.40;;;13.70;99.90;;;;;;5135131;27;20447;-66
2022/08/31 05:07:19;;;;;;;0.40;0.40;;;13.70;99.90;;;;;;5136433;27;20420;-67
2022/08/31 05:10:08;;;;;;;0.40;0.40;;;13.70;99.90;;;;;;5136214;27;20420;-66
2022/08/31 05:12:56;;;;;;;0.40;0.40;;;13.60;99.90;;;;;;5135875;27;20421;-67
2022/08/31 05:15:45;;;;;;;0.40;0.40;;;13.60;99.90;;;;;;5136084;27;20417;-67
2022/08/31 05:18:37;;;;;;;0.40;0.40;;;13.70;99.90;;;;;;5135553;27;20416;-66
2022/08/31 05:21:30;;;;;;;0.40;0.40;;;13.70;99.90;;;;;;5135531;27;20412;-66
2022/08/31 05:24:21;;;;;;;0.40;0.40;;;13.70;99.90;;;;;;5135415;27;20463;-67
2022/08/31 05:27:09;;;;;;;0.40;0.40;;;13.80;99.90;;;;;;5136765;27;20508;-68
2022/08/31 05:29:57;;;;;;;0.50;0.50;;;13.90;99.90;;;;;;5136251;27;20966;-67
2022/08/31 05:32:46;;;;;;;0.40;0.40;;;14.00;99.90;;;;;;5135932;27;20485;-66
2022/08/31 05:35:35;;;;;;;0.40;0.40;;;14.00;99.90;;;;;;5136234;27;20440;-67
2022/08/31 05:38:24;;;;;;;0.57;0.57;;;14.10;99.90;;;;;;5135492;27;20420;-67
2022/08/31 05:41:13;;;;;;;0.40;0.40;;;14.20;99.90;;;;;;5135852;27;20428;-66
2022/08/31 05:44:03;;;;;;;0.40;0.40;;;14.30;99.90;;;;;;5136097;27;20452;-66
2022/08/31 05:46:51;;;;;;;0.40;0.40;;;14.30;99.90;;;;;;5134677;27;20463;-66
2022/08/31 05:49:51;;;;;;;0.40;0.40;;;14.30;99.90;;;;;;5135685;27;20803;-67
2022/08/31 05:52:39;;;;;;;0.40;0.40;;;14.30;99.90;;;;;;5134929;27;20431;-67
2022/08/31 05:55:29;;;;;;;0.40;0.40;;;14.40;99.90;;;;;;5134234;27;20441;-66
2022/08/31 05:58:17;;;;;;;0.40;0.40;;;14.40;99.90;;;;;;5134771;27;20889;-66
2022/08/31 06:01:13;;;;;;;0.50;0.50;;;14.50;99.90;;;;;;5132377;27;20429;-66
2022/08/31 06:04:02;;;;;;;0.40;0.40;;;14.50;99.90;;;;;;5131149;27;20470;-67
2022/08/31 06:06:51;;;;;;;0.40;0.40;;;14.50;99.90;;;;;;5134920;27;20521;-66
2022/08/31 06:09:39;;;;;;;0.40;0.40;;;14.50;99.90;;;;;;5134797;27;20447;-66
2022/08/31 06:12:33;;;;;;;0.40;0.40;;;14.60;99.90;;;;;;5136407;27;20425;-68
2022/08/31 06:15:21;;;;;;;0.40;0.40;;;14.60;99.90;;;;;;5135672;27;20520;-68
2022/08/31 06:18:09;;;;;;;0.40;0.40;;;14.70;99.90;;;;;;5134532;27;20425;-68
2022/08/31 06:21:01;;;;;;;0.40;0.40;;;14.80;99.90;;;;;;5122912;27;20421;-68
2022/08/31 06:23:51;;;;;;;0.40;0.40;;;14.90;99.90;;;;;;5113749;28;21094;-67
2022/08/31 06:26:39;;;;;;;0.40;0.40;;;15.00;99.90;;;;;;5114162;28;20500;-67
2022/08/31 06:29:30;;;;;;;0.50;0.50;;;15.10;99.90;;;;;;5112795;28;20938;-68
2022/08/31 06:32:19;;;;;;;0.40;0.40;;;15.20;99.90;;;;;;5112826;28;20613;-68
2022/08/31 06:35:09;;;;;;;0.40;0.40;;;15.30;99.90;;;;;;5114005;28;20227;-68
2022/08/31 06:37:57;;;;;;;0.57;0.57;;;15.30;99.90;;;;;;5113936;28;20691;-70
2022/08/31 06:40:45;;;;;;;0.40;0.40;;;15.40;99.90;;;;;;5113085;28;20430;-69
2022/08/31 06:43:33;;;;;;;0.40;0.40;;;15.60;99.90;;;;;;5113873;28;20426;-69
2022/08/31 06:46:23;;;;;;;0.40;0.40;;;15.60;99.90;;;;;;5113614;28;20830;-69
2022/08/31 06:49:12;;;;;;;0.50;0.50;;;14.50;99.90;;;;;;5113343;28;20210;-66
2022/08/31 06:52:00;;;;;;;0.40;0.40;;;15.80;99.90;;;;;;5112810;28;20847;-67
2022/08/31 06:54:48;;;;;;;0.40;0.40;;;15.90;99.90;;;;;;5113928;28;20234;-68
2022/08/31 06:57:36;;;;;;;0.40;0.40;;;16.00;99.90;;;;;;5126189;27;20240;-71
2022/08/31 07:00:24;;;;;;;0.40;0.40;;;16.10;99.90;;;;;;5132284;27;20421;-68
2022/08/31 07:03:23;;;;;;;0.50;0.50;;;16.20;99.90;;;;;;5132840;27;20198;-67
2022/08/31 07:06:13;;;;;;;0.43;0.43;;;16.20;99.90;;;;;;5132037;27;20211;-68
2022/08/31 07:09:03;;;;;;;0.40;0.40;;;16.30;99.90;;;;;;5133766;27;20202;-68
2022/08/31 07:11:52;;;;;;;0.40;0.40;;;16.40;99.90;;;;;;5132247;27;20194;-71
2022/08/31 07:14:40;;;;;;;0.40;0.40;;;16.40;99.90;;;;;;5131900;27;20222;-68
2022/08/31 07:17:37;;;;;;;0.40;0.40;;;16.50;99.90;;;;;;5132621;27;20257;-68
2022/08/31 07:20:26;;;;;;;0.40;0.40;;;16.60;99.90;;;;;;5133443;27;20207;-67
2022/08/31 07:23:14;;;;;;;0.40;0.40;;;16.60;99.90;;;;;;5132910;27;20662;-70
2022/08/31 07:26:05;;;;;;;0.40;0.40;;;16.70;99.90;;;;;;5132877;27;20215;-70
2022/08/31 07:28:54;;;;;;;0.40;0.40;;;16.80;99.90;;;;;;5132558;27;20229;-70
2022/08/31 07:31:45;;;;;;;0.40;0.40;;;16.90;99.90;;;;;;5132410;27;20202;-67
2022/08/31 07:34:34;;;;;;;0.40;0.40;;;16.90;99.90;;;;;;5131643;27;20217;-70
2022/08/31 07:43:36;;;;;;;0.40;0.40;;;17.20;99.90;;;;;;5131808;27;20214;-68
2022/08/31 07:46:28;;;;;;;0.40;0.40;;;17.40;99.90;;;;;;5132923;27;20586;-69
2022/08/31 07:49:17;;;;;;;0.50;0.50;;;17.50;99.90;;;;;;5131634;27;20195;-71
2022/08/31 07:52:07;;;;;;;0.40;0.40;;;17.50;99.90;;;;;;5121597;27;20282;-68
2022/08/31 07:55:05;;;;;;;0.40;0.40;;;17.70;99.90;;;;;;5122875;27;20215;-71
2022/08/31 07:57:54;;;;;;;0.40;0.40;;;17.80;99.90;;;;;;5122099;27;20199;-68
2022/08/31 08:00:46;;;;;;;0.40;0.40;;;17.80;99.90;;;;;;5119534;27;20191;-66
2022/08/31 08:03:34;;;;;;;0.40;0.40;;;18.00;99.90;;;;;;5121489;27;20206;-68
2022/08/31 08:06:27;;;;;;;0.40;0.40;;;18.00;99.90;;;;;;5123303;27;20218;-69
2022/08/31 08:09:19;;;;;;;0.50;0.50;;;18.10;99.90;;;;;;5119328;27;20195;-67
2022/08/31 08:12:13;;;;;;;0.40;0.40;;;18.30;99.90;;;;;;5122445;27;20577;-68
2022/08/31 08:15:03;;;;;;;0.40;0.40;;;18.30;99.90;;;;;;5120464;27;20241;-67
2022/08/31 08:17:51;;;;;;;0.55;0.55;;;18.40;99.90;;;;;;5122665;27;20562;-67
2022/08/31 08:20:40;;;;;;;0.40;0.40;;;18.50;99.90;;;;;;5118729;27;20686;-66
2022/08/31 08:23:28;;;;;;;0.50;0.50;;;18.50;99.90;;;;;;5111600;28;20203;-67
2022/08/31 08:26:16;;;;;;;0.40;0.40;;;18.60;99.90;;;;;;5115858;28;20215;-67
2022/08/31 08:29:10;;;;;;;0.40;0.40;;;18.60;99.90;;;;;;5119079;28;20195;-67
2022/08/31 08:31:58;;;;;;;0.40;0.40;;;18.70;99.90;;;;;;5118575;28;20202;-68
2022/08/31 08:34:46;;;;;;;0.40;0.40;;;18.70;99.90;;;;;;5121741;27;20254;-67
2022/08/31 08:37:34;;;;;;;0.40;0.40;;;18.80;99.90;;;;;;5129321;27;20564;-67
2022/08/31 08:40:43;;;;;;;0.40;0.40;;;18.90;99.90;;;;;;5128924;27;20195;-68
2022/08/31 08:43:34;;;;;;;0.40;0.40;;;19.00;99.90;;;;;;5129513;27;20267;-67
2022/08/31 08:46:30;;;;;;;0.40;0.40;;;19.10;99.90;;;;;;5128775;27;20233;-67
2022/08/31 08:49:29;;;;;;;0.50;0.50;;;19.10;99.90;;;;;;5126427;27;20567;-68
2022/08/31 08:52:24;;;;;;;0.40;0.40;;;19.10;99.90;;;;;;5127804;27;20691;-67
2022/08/31 08:55:15;;;;;;;0.47;0.47;;;19.10;99.90;;;;;;5128380;27;20306;-67
2022/08/31 08:58:06;;;;;;;0.40;0.40;;;19.20;99.90;;;;;;5129022;27;20591;-68
2022/08/31 09:00:55;;;;;;;0.40;0.40;;;19.20;99.90;;;;;;5126275;27;20195;-69
2022/08/31 09:03:56;;;;;;;0.50;0.50;;;19.20;99.90;;;;;;5126315;27;20215;-67
2022/08/31 09:06:53;;;;;;;0.40;0.40;;;19.30;99.90;;;;;;5126375;27;20231;-69
2022/08/31 09:09:48;;;;;;;0.40;0.40;;;19.40;99.90;;;;;;5115998;28;20667;-68
2022/08/31 09:12:45;;;;;;;0.40;0.40;;;19.50;99.90;;;;;;5116824;27;20213;-68
2022/08/31 09:15:59;;;;;;;0.40;0.40;;;19.60;99.90;;;;;;5118169;28;20307;-69
2022/08/31 09:18:55;;;;;;;0.40;0.40;;;19.70;99.90;;;;;;5117537;28;20202;-67
2022/08/31 09:21:46;;;;;;;0.40;0.40;;;19.80;99.90;;;;;;5117697;28;20593;-68
2022/08/31 09:24:34;;;;;;;0.40;0.40;;;19.90;99.90;;;;;;5118477;28;20250;-68
2022/08/31 09:27:39;;;;;;;0.40;0.40;;;20.00;99.90;;;;;;5117529;28;20660;-68
2022/08/31 09:30:50;;;;;;;0.40;0.40;;;20.00;99.90;;;;;;5116212;28;20198;-68
2022/08/31 09:33:49;;;;;;;0.40;0.40;;;20.00;99.90;;;;;;5118033;28;20229;-68
2022/08/31 09:36:40;;;;;;;0.40;0.40;;;20.00;99.90;;;;;;5116793;27;20218;-67
2022/08/31 09:39:31;;;;;;;0.50;0.50;;;20.10;99.90;;;;;;5116249;27;20255;-68
2022/08/31 09:42:29;;;;;;;0.40;0.40;;;20.10;99.90;;;;;;5134630;27;20207;-67
2022/08/31 09:45:28;;;;;;;0.40;0.40;;;20.10;99.90;;;;;;5134419;27;20219;-67
2022/08/31 09:48:39;;;;;;;0.40;0.40;;;20.20;99.90;;;;;;5134580;27;20255;-68
2022/08/31 09:51:31;;;;;;;0.40;0.40;;;20.30;99.90;;;;;;5133647;27;20205;-68
2022/08/31 09:57:52;;;;;;;0.40;0.40;;;20.50;99.90;;;;;;5121574;27;20321;-68
2022/08/31 10:00:43;;;;;;;0.40;0.40;;;20.60;99.90;;;;;;5113608;28;20205;-69
2022/08/31 10:03:34;;;;;;;0.40;0.40;;;20.60;99.90;;;;;;5117572;27;20194;-68
2022/08/31 10:06:42;;;;;;;0.40;0.40;;;20.60;99.90;;;;;;5133685;27;20222;-68
2022/08/31 10:09:36;;;;;;;0.40;0.40;;;20.60;99.90;;;;;;5133263;27;20283;-69
2022/08/31 10:12:38;;;;;;;0.40;0.40;;;20.60;99.90;;;;;;5134212;27;20202;-67
2022/08/31 10:15:30;;;;;;;0.40;0.40;;;20.60;99.90;;;;;;5133293;27;20690;-66
2022/08/31 10:18:25;;;;;;;0.40;0.40;;;20.70;99.90;;;;;;5132782;27;20218;-68
2022/08/31 10:21:20;;;;;;;0.40;0.40;;;20.90;99.90;;;;;;5133722;27;20205;-67
2022/08/31 10:24:19;;;;;;;0.60;0.60;;;21.30;99.90;;;;;;5133547;27;20604;-66
2022/08/31 10:27:15;;;;;;;0.40;0.40;;;21.50;99.90;;;;;;5134207;27;22146;-67
2022/08/31 10:30:07;;;;;;;0.40;0.40;;;21.70;99.90;;;;;;5133962;27;20194;-67
2022/08/31 10:33:00;;;;;;;0.40;0.40;;;21.80;99.90;;;;;;5134532;27;20701;-67
2022/08/31 10:35:54;;;;;;;0.40;0.40;;;21.80;99.90;;;;;;5133835;27;20194;-67
2022/08/31 10:38:45;;;;;;;0.40;0.40;;;21.80;99.90;;;;;;5132833;27;20191;-68
2022/08/31 10:41:42;;;;;;;0.40;0.40;;;21.70;99.90;;;;;;5132666;27;20205;-68
2022/08/31 10:44:38;;;;;;;0.40;0.40;;;21.80;99.90;;;;;;5132186;27;20214;-67
2022/08/31 10:47:29;;;;;;;0.40;0.40;;;21.70;99.90;;;;;;5133582;27;20219;-67
2022/08/31 10:50:29;;;;;;;0.40;0.40;;;21.70;99.90;;;;;;5133230;27;20275;-67
2022/08/31 10:53:30;;;;;;;0.40;0.40;;;21.60;99.90;;;;;;5132975;27;20202;-68
2022/08/31 10:56:31;;;;;;;0.40;0.40;;;21.70;99.90;;;;;;5131264;27;20203;-66
2022/08/31 10:59:29;;;;;;;0.77;0.77;;;21.70;99.90;;;;;;5112453;28;20199;-66
2022/08/31 11:02:35;;;;;;;1.27;1.27;;;21.60;99.90;;;;;;5120849;27;20256;-67
2022/08/31 11:05:34;;;;;;;0.40;0.40;;;21.60;99.90;;;;;;5122534;27;20283;-67
2022/08/31 11:08:47;;;;;;;0.40;0.40;;;21.50;99.90;;;;;;5123019;27;20602;-67
2022/08/31 11:11:41;;;;;;;0.40;0.40;;;21.40;99.90;;;;;;5122089;27;20195;-67
2022/08/31 11:14:48;;;;;;;0.40;0.40;;;21.10;99.90;;;;;;5122896;27;20213;-68
2022/08/31 11:17:57;;;;;;;0.40;0.40;;;21.10;99.90;;;;;;5120761;27;20191;-66
2022/08/31 11:21:07;;;;;;;0.40;0.40;;;21.20;99.90;;;;;;5123121;27;20199;-67
2022/08/31 11:24:12;;;;;;;0.40;0.40;;;21.40;99.90;;;;;;5121004;27;20215;-68
2022/08/31 11:27:12;;;;;;;0.40;0.40;;;21.60;99.90;;;;;;5132392;27;20681;-66
2022/08/31 11:30:06;;;;;;;0.40;0.40;;;21.80;99.90;;;;;;5132685;27;20198;-67
2022/08/31 11:32:59;;;;;;;0.40;0.40;;;22.00;99.90;;;;;;5132635;27;20205;-66
2022/08/31 11:36:08;;;;;;;0.40;0.40;;;22.50;99.90;;;;;;5133571;27;20202;-66
2022/08/31 11:39:34;;;;;;;0.40;0.40;;;23.00;99.90;;;;;;5132534;27;20190;-66
2022/08/31 11:42:59;;;;;;;0.40;0.40;;;23.10;99.90;;;;;;5133637;27;20202;-65
2022/08/31 11:45:49;;;;;;;0.40;0.40;;;23.10;99.90;;;;;;5132973;27;20210;-66
2022/08/31 11:49:00;;;;;;;0.40;0.40;;;23.00;99.90;;;;;;5132922;27;20299;-65
2022/08/31 11:51:54;;;;;;;0.40;0.40;;;23.00;99.90;;;;;;5113069;28;20689;-65
2022/08/31 11:55:19;;;;;;;0.40;0.40;;;23.00;99.90;;;;;;5127909;27;20219;-66
2022/08/31 11:58:30;;;;;;;0.40;0.40;;;23.10;99.90;;;;;;5125297;27;20199;-66
2022/08/31 12:01:34;;;;;;;0.45;0.45;;;23.30;99.90;;;;;;5117760;27;20199;-65
2022/08/31 12:05:01;;;;;;;0.40;0.40;;;23.50;99.40;;;;;;5112962;28;20222;-66
2022/08/31 12:07:49;;;;;;;0.40;0.40;;;23.60;98.50;;;;;;5112978;28;20203;-65
2022/08/31 12:10:51;;;;;;;0.40;0.40;;;23.70;98.10;;;;;;5128426;27;20195;-67
2022/08/31 12:13:50;;;;;;;0.40;0.40;;;23.70;98.30;;;;;;5131477;27;20223;-65
2022/08/31 12:16:53;;;;;;;0.40;0.40;;;23.40;98.70;;;;;;5113062;28;20226;-66
2022/08/31 12:20:00;;;;;;;0.40;0.40;;;23.40;98.40;;;;;;5116335;27;20666;-64
2022/08/31 12:26:33;;;;;;;0.40;0.40;;;23.60;98.60;;;;;;5132519;28;20194;-66
2022/08/31 12:29:26;;;;;;;0.40;0.40;;;24.00;98.70;;;;;;5131964;28;20225;-65
2022/08/31 12:32:22;;;;;;;0.40;0.40;;;24.00;95.10;;;;;;5133913;28;20199;-67
2022/08/31 12:35:15;;;;;;;0.40;0.40;;;24.00;95.50;;;;;;5132229;28;20222;-66
2022/08/31 12:38:07;;;;;;;0.40;0.40;;;24.30;95.80;;;;;;5131001;28;20191;-66
2022/08/31 12:40:57;;;;;;;0.50;0.50;;;24.60;96.00;;;;;;5132242;28;20202;-65
2022/08/31 12:43:47;;;;;;;0.40;0.40;;;24.60;95.20;;;;;;5132345;28;20230;-66
2022/08/31 12:46:59;;;;;;;0.40;0.40;;;24.80;95.20;;;;;;5111944;28;20690;-66
2022/08/31 12:49:59;;;;;;;0.40;0.40;;;25.00;94.80;;;;;;5111734;28;20285;-66
2022/08/31 12:52:59;;;;;;;0.40;0.40;;;25.10;93.90;;;;;;5112644;28;20620;-65
2022/08/31 12:55:57;;;;;;;0.40;0.40;;;25.00;93.00;;;;;;5110974;28;20195;-66
2022/08/31 12:58:59;;;;;;;0.40;0.40;;;25.10;93.00;;;;;;5111717;28;20191;-66
2022/08/31 13:01:49;;;;;;;0.40;0.40;;;25.60;92.20;;;;;;5119882;28;20195;-65
2022/08/31 13:04:42;;;;;;;0.40;0.40;;;27.00;91.10;;;;;;5120658;28;20223;-65
2022/08/31 13:07:32;;;;;;;0.40;0.40;;;28.70;87.90;;;;;;5120894;28;20203;-65
2022/08/31 13:10:28;;;;;;;0.40;0.40;;;30.30;81.10;;;;;;5130168;28;20565;-65
2022/08/31 13:13:23;;;;;;;0.40;0.40;;;31.50;75.00;;;;;;5122695;27;20202;-65
2022/08/31 13:16:12;;;;;;;0.40;0.40;;;31.00;73.10;;;;;;5125496;27;20199;-65
2022/08/31 13:19:04;;;;;;;0.40;0.40;;;29.60;71.90;;;;;;5124717;27;20194;-65
2022/08/31 13:21:56;;;;;;;0.40;0.40;;;28.30;75.00;;;;;;5128573;27;20566;-65
2022/08/31 13:24:46;;;;;;;0.40;0.40;;;27.30;75.70;;;;;;5134095;27;20359;-65
2022/08/31 13:27:48;;;;;;;0.40;0.40;;;26.70;77.70;;;;;;5124740;27;20203;-65
2022/08/31 13:30:38;;;;;;;0.40;0.40;;;27.70;76.20;;;;;;5122262;27;20211;-65
2022/08/31 13:33:30;;;;;;;0.40;0.40;;;29.00;73.90;;;;;;5113864;27;20209;-65
2022/08/31 13:36:30;;;;;;;0.40;0.40;;;30.20;71.90;;;;;;5125883;27;20251;-65
2022/08/31 13:39:25;;;;;;;0.40;0.40;;;30.70;68.70;;;;;;5123005;27;20198;-66
2022/08/31 13:42:28;;;;;;;0.40;0.40;;;29.70;68.30;;;;;;5114168;28;20191;-66
2022/08/31 13:45:26;;;;;;;0.40;0.40;;;28.40;70.10;;;;;;5113197;28;20222;-65
2022/08/31 13:48:20;;;;;;;0.40;0.40;;;27.40;72.70;;;;;;5113133;28;20666;-65
2022/08/31 13:51:18;;;;;;;0.40;0.40;;;27.20;72.70;;;;;;5120536;27;20247;-65
2022/08/31 13:54:24;;;;;;;0.40;0.40;;;28.70;70.90;;;;;;5134117;27;20251;-66
2022/08/31 13:57:19;;;;;;;0.40;0.40;;;31.20;67.00;;;;;;5133625;27;20693;-66
2022/08/31 14:00:24;;;;;;;0.40;0.40;;;33.30;64.30;;;;;;5133958;27;20195;-66
2022/08/31 14:03:44;;;;;;;0.40;0.40;;;34.40;59.60;;;;;;5133905;27;20191;-66
2022/08/31 14:06:36;;;;;;;0.40;0.40;;;34.30;56.60;;;;;;5133208;27;20578;-66
2022/08/31 14:09:25;;;;;;;1.63;1.52;;;33.20;57.00;;;;;;5133102;27;20219;-66
2022/08/31 14:12:33;;;;;;;0.40;0.40;;;31.80;58.00;;;;;;5134033;27;20579;-65
2022/08/31 14:15:34;;;;;;;0.40;0.40;;;30.70;60.00;;;;;;5133346;27;20226;-66
2022/08/31 14:18:26;;;;;;;0.40;0.40;;;29.40;61.20;;;;;;5134033;27;20689;-65
2022/08/31 14:21:26;;;;;;;0.40;0.40;;;28.60;63.40;;;;;;5131857;27;20571;-65
2022/08/31 14:24:15;;;;;;;0.40;0.40;;;28.10;64.20;;;;;;5133104;27;20227;-65
2022/08/31 14:27:05;;;;;;;0.40;0.40;;;27.80;65.30;;;;;;5134229;27;20378;-65
2022/08/31 14:29:53;;;;;;;0.40;0.40;;;27.90;65.50;;;;;;5132433;27;20267;-65
2022/08/31 14:32:42;;;;;;;0.40;0.40;;;27.80;64.30;;;;;;5134572;27;20202;-65
2022/08/31 14:35:31;;;;;;;0.40;0.40;;;27.60;65.40;;;;;;5132539;27;20325;-65
2022/08/31 14:38:23;;;;;;;0.40;0.40;;;27.20;65.40;;;;;;5134067;27;20205;-65
2022/08/31 14:41:15;;;;;;;0.40;0.40;;;27.50;66.00;;;;;;5121352;27;20222;-65
2022/08/31 14:44:08;;;;;;;0.40;0.40;;;28.60;65.50;;;;;;5123654;27;20320;-65
2022/08/31 14:46:56;;;;;;;0.40;0.40;;;29.10;62.60;;;;;;5121841;27;20294;-65
2022/08/31 14:49:44;;;;;;;0.40;0.40;;;29.00;62.10;;;;;;5123732;27;20706;-65
2022/08/31 14:52:33;;;;;;;0.40;0.40;;;28.70;62.30;;;;;;5134026;27;20698;-65
2022/08/31 14:55:25;;;;;;;0.40;0.40;;;28.80;62.60;;;;;;5134095;27;20635;-65
2022/08/31 14:58:15;;;;;;;0.40;0.40;;;29.00;62.60;;;;;;5132509;27;20202;-65
2022/08/31 15:01:05;;;;;;;0.40;0.40;;;28.80;62.40;;;;;;5115640;27;20329;-65
2022/08/31 15:03:54;;;;;;;0.40;0.40;;;28.40;62.70;;;;;;5115089;27;20292;-65
2022/08/31 15:06:42;;;;;;;0.40;0.40;;;28.00;63.20;;;;;;5115054;27;20195;-65
2022/08/31 15:09:31;;;;;;;0.40;0.40;;;27.80;63.70;;;;;;5123217;27;20219;-65
2022/08/31 15:12:20;;;;;;;0.40;0.40;;;28.20;64.00;;;;;;5132906;27;20202;-65
2022/08/31 15:15:09;;;;;;;0.40;0.40;;;28.90;62.40;;;;;;5127232;27;20227;-65
2022/08/31 15:17:59;;;;;;;0.40;0.40;;;30.20;61.10;;;;;;5123151;27;20200;-66